sensor_id;sensor_type;location;lat;lon;timestamp;temperature;humidity
67358;HTU21D;54240;51.096;5.878;2023-05-16T00:00:41;10.53;118.99
67358;HTU21D;54240;51.096;5.878;2023-05-16T00:03:07;10.39;118.99
67358;HTU21D;54240;51.096;5.878;2023-05-16T00:05:36;10.40;118.99
67358;HTU21D;54240;51.096;5.878;2023-05-16T00:08:03;10.19;118.99
67358;HTU21D;54240;51.096;5.878;2023-05-16T00:10:29;10.33;118.99
67358;HTU21D;54240;51.096;5.878;2023-05-16T00:12:55;10.20;118.99
67358;HTU21D;54240;51.096;5.878;2023-05-16T00:15:22;10.38;118.99
67358;HTU21D;54240;51.096;5.878;2023-05-16T00:17:49;10.45;118.99
67358;HTU21D;54240;51.096;5.878;2023-05-16T00:20:16;10.31;118.99
67358;HTU21D;54240;51.096;5.878;2023-05-16T00:22:47;10.37;118.99
67358;HTU21D;54240;51.096;5.878;2023-05-16T00:25:13;10.34;118.99
67358;HTU21D;54240;51.096;5.878;2023-05-16T00:27:39;10.28;118.99
67358;HTU21D;54240;51.096;5.878;2023-05-16T00:30:06;10.33;118.99
67358;HTU21D;54240;51.096;5.878;2023-05-16T00:32:32;10.30;118.99
67358;HTU21D;54240;51.096;5.878;2023-05-16T00:34:59;10.35;118.99
67358;HTU21D;54240;51.096;5.878;2023-05-16T00:37:25;10.21;118.99
67358;HTU21D;54240;51.096;5.878;2023-05-16T00:39:53;10.36;118.99
67358;HTU21D;54240;51.096;5.878;2023-05-16T00:42:19;10.57;118.99
67358;HTU21D;54240;51.096;5.878;2023-05-16T00:44:46;10.46;118.99
67358;HTU21D;54240;51.096;5.878;2023-05-16T00:47:14;10.43;118.99
67358;HTU21D;54240;51.096;5.878;2023-05-16T00:49:43;10.41;118.99
67358;HTU21D;54240;51.096;5.878;2023-05-16T00:52:10;10.34;118.99
67358;HTU21D;54240;51.096;5.878;2023-05-16T00:54:36;10.23;118.99
67358;HTU21D;54240;51.096;5.878;2023-05-16T00:57:03;10.23;118.99
67358;HTU21D;54240;51.096;5.878;2023-05-16T00:59:29;10.01;118.99
67358;HTU21D;54240;51.096;5.878;2023-05-16T01:01:56;10.05;118.99
67358;HTU21D;54240;51.096;5.878;2023-05-16T01:04:22;9.92;118.99
67358;HTU21D;54240;51.096;5.878;2023-05-16T01:06:48;9.97;118.99
67358;HTU21D;54240;51.096;5.878;2023-05-16T01:09:14;10.25;118.99
67358;HTU21D;54240;51.096;5.878;2023-05-16T01:14:35;10.21;118.99
67358;HTU21D;54240;51.096;5.878;2023-05-16T01:17:22;10.24;118.99
67358;HTU21D;54240;51.096;5.878;2023-05-16T01:20:23;10.22;118.99
67358;HTU21D;54240;51.096;5.878;2023-05-16T01:28:44;10.07;118.99
67358;HTU21D;54240;51.096;5.878;2023-05-16T01:31:10;10.18;118.99
67358;HTU21D;54240;51.096;5.878;2023-05-16T01:33:36;10.20;118.99
67358;HTU21D;54240;51.096;5.878;2023-05-16T01:36:23;10.18;118.99
67358;HTU21D;54240;51.096;5.878;2023-05-16T01:39:23;10.21;118.99
67358;HTU21D;54240;51.096;5.878;2023-05-16T01:44:36;10.14;118.99
67358;HTU21D;54240;51.096;5.878;2023-05-16T01:47:12;10.25;118.99
67358;HTU21D;54240;51.096;5.878;2023-05-16T01:52:30;10.14;118.99
67358;HTU21D;54240;51.096;5.878;2023-05-16T01:54:58;10.00;118.99
67358;HTU21D;54240;51.096;5.878;2023-05-16T01:57:28;10.10;118.99
67358;HTU21D;54240;51.096;5.878;2023-05-16T01:59:57;10.16;118.99
67358;HTU21D;54240;51.096;5.878;2023-05-16T02:02:23;10.19;118.99
67358;HTU21D;54240;51.096;5.878;2023-05-16T02:04:49;10.05;118.99
67358;HTU21D;54240;51.096;5.878;2023-05-16T02:07:15;9.80;118.99
67358;HTU21D;54240;51.096;5.878;2023-05-16T02:09:44;9.69;118.99
67358;HTU21D;54240;51.096;5.878;2023-05-16T02:12:10;9.63;118.99
67358;HTU21D;54240;51.096;5.878;2023-05-16T02:14:36;9.68;118.99
67358;HTU21D;54240;51.096;5.878;2023-05-16T02:17:02;9.62;118.99
67358;HTU21D;54240;51.096;5.878;2023-05-16T02:19:28;9.68;118.99
67358;HTU21D;54240;51.096;5.878;2023-05-16T02:21:54;9.42;118.99
67358;HTU21D;54240;51.096;5.878;2023-05-16T02:24:20;9.83;118.99
67358;HTU21D;54240;51.096;5.878;2023-05-16T02:26:46;9.85;118.99
67358;HTU21D;54240;51.096;5.878;2023-05-16T02:29:12;9.89;118.99
67358;HTU21D;54240;51.096;5.878;2023-05-16T02:31:38;9.82;118.99
67358;HTU21D;54240;51.096;5.878;2023-05-16T02:34:04;9.69;118.99
67358;HTU21D;54240;51.096;5.878;2023-05-16T02:36:29;9.82;118.99
67358;HTU21D;54240;51.096;5.878;2023-05-16T02:38:56;9.88;118.99
67358;HTU21D;54240;51.096;5.878;2023-05-16T02:41:22;9.66;118.99
67358;HTU21D;54240;51.096;5.878;2023-05-16T02:43:48;9.74;118.99
67358;HTU21D;54240;51.096;5.878;2023-05-16T02:46:27;9.92;118.99
67358;HTU21D;54240;51.096;5.878;2023-05-16T02:48:55;10.03;118.99
67358;HTU21D;54240;51.096;5.878;2023-05-16T02:51:27;10.03;118.99
67358;HTU21D;54240;51.096;5.878;2023-05-16T02:53:54;10.05;118.99
67358;HTU21D;54240;51.096;5.878;2023-05-16T02:56:25;10.08;118.99
67358;HTU21D;54240;51.096;5.878;2023-05-16T02:58:53;10.06;118.99
67358;HTU21D;54240;51.096;5.878;2023-05-16T03:01:19;10.05;118.99
67358;HTU21D;54240;51.096;5.878;2023-05-16T03:03:45;10.09;118.99
67358;HTU21D;54240;51.096;5.878;2023-05-16T03:06:14;10.05;118.99
67358;HTU21D;54240;51.096;5.878;2023-05-16T03:08:41;9.91;118.99
67358;HTU21D;54240;51.096;5.878;2023-05-16T03:11:07;9.92;118.99
67358;HTU21D;54240;51.096;5.878;2023-05-16T03:13:33;9.83;118.99
67358;HTU21D;54240;51.096;5.878;2023-05-16T03:15:59;9.82;118.99
67358;HTU21D;54240;51.096;5.878;2023-05-16T03:18:25;9.71;118.99
67358;HTU21D;54240;51.096;5.878;2023-05-16T03:20:51;9.61;118.99
67358;HTU21D;54240;51.096;5.878;2023-05-16T03:23:19;9.33;118.99
67358;HTU21D;54240;51.096;5.878;2023-05-16T03:25:45;9.23;118.99
67358;HTU21D;54240;51.096;5.878;2023-05-16T03:28:16;9.17;118.99
67358;HTU21D;54240;51.096;5.878;2023-05-16T03:30:45;9.26;118.99
67358;HTU21D;54240;51.096;5.878;2023-05-16T03:33:11;9.30;118.99
67358;HTU21D;54240;51.096;5.878;2023-05-16T03:35:37;9.33;118.99
67358;HTU21D;54240;51.096;5.878;2023-05-16T03:38:04;9.08;118.99
67358;HTU21D;54240;51.096;5.878;2023-05-16T03:40:30;9.09;118.99
67358;HTU21D;54240;51.096;5.878;2023-05-16T03:42:56;9.01;118.99
67358;HTU21D;54240;51.096;5.878;2023-05-16T03:45:22;8.89;118.99
67358;HTU21D;54240;51.096;5.878;2023-05-16T03:47:48;8.91;118.99
67358;HTU21D;54240;51.096;5.878;2023-05-16T03:50:15;8.88;118.99
67358;HTU21D;54240;51.096;5.878;2023-05-16T03:52:42;8.91;118.99
67358;HTU21D;54240;51.096;5.878;2023-05-16T03:55:08;8.90;118.99
67358;HTU21D;54240;51.096;5.878;2023-05-16T03:57:36;8.89;118.99
67358;HTU21D;54240;51.096;5.878;2023-05-16T04:00:07;9.01;118.99
67358;HTU21D;54240;51.096;5.878;2023-05-16T04:02:40;9.06;118.99
67358;HTU21D;54240;51.096;5.878;2023-05-16T04:05:08;9.23;118.99
67358;HTU21D;54240;51.096;5.878;2023-05-16T04:07:36;9.34;118.99
67358;HTU21D;54240;51.096;5.878;2023-05-16T04:10:03;9.34;118.99
67358;HTU21D;54240;51.096;5.878;2023-05-16T04:12:29;9.42;118.99
67358;HTU21D;54240;51.096;5.878;2023-05-16T04:14:55;9.31;118.99
67358;HTU21D;54240;51.096;5.878;2023-05-16T04:17:21;9.32;118.99
67358;HTU21D;54240;51.096;5.878;2023-05-16T04:19:47;9.29;118.99
67358;HTU21D;54240;51.096;5.878;2023-05-16T04:22:13;9.33;118.99
67358;HTU21D;54240;51.096;5.878;2023-05-16T04:24:42;9.29;118.99
67358;HTU21D;54240;51.096;5.878;2023-05-16T04:27:08;9.24;118.99
67358;HTU21D;54240;51.096;5.878;2023-05-16T04:29:34;9.11;118.99
67358;HTU21D;54240;51.096;5.878;2023-05-16T04:32:00;9.19;118.99
67358;HTU21D;54240;51.096;5.878;2023-05-16T04:34:27;9.20;118.99
67358;HTU21D;54240;51.096;5.878;2023-05-16T04:36:56;9.20;118.99
67358;HTU21D;54240;51.096;5.878;2023-05-16T04:39:22;9.23;118.99
67358;HTU21D;54240;51.096;5.878;2023-05-16T04:41:48;9.32;118.99
67358;HTU21D;54240;51.096;5.878;2023-05-16T04:44:14;9.24;118.99
67358;HTU21D;54240;51.096;5.878;2023-05-16T04:46:43;9.33;118.99
67358;HTU21D;54240;51.096;5.878;2023-05-16T04:49:09;9.38;118.99
67358;HTU21D;54240;51.096;5.878;2023-05-16T04:51:36;9.38;118.99
67358;HTU21D;54240;51.096;5.878;2023-05-16T04:54:02;9.48;118.99
67358;HTU21D;54240;51.096;5.878;2023-05-16T04:56:34;9.57;118.99
67358;HTU21D;54240;51.096;5.878;2023-05-16T04:59:00;9.62;118.99
67358;HTU21D;54240;51.096;5.878;2023-05-16T05:01:26;9.51;118.99
67358;HTU21D;54240;51.096;5.878;2023-05-16T05:03:52;9.54;118.99
67358;HTU21D;54240;51.096;5.878;2023-05-16T05:06:18;9.63;118.99
67358;HTU21D;54240;51.096;5.878;2023-05-16T05:08:44;9.60;118.99
67358;HTU21D;54240;51.096;5.878;2023-05-16T05:11:10;9.70;118.99
67358;HTU21D;54240;51.096;5.878;2023-05-16T05:13:36;9.66;118.99
67358;HTU21D;54240;51.096;5.878;2023-05-16T05:16:02;9.57;118.99
67358;HTU21D;54240;51.096;5.878;2023-05-16T05:18:29;9.70;118.99
67358;HTU21D;54240;51.096;5.878;2023-05-16T05:20:55;9.77;118.99
67358;HTU21D;54240;51.096;5.878;2023-05-16T05:23:21;9.82;118.99
67358;HTU21D;54240;51.096;5.878;2023-05-16T05:25:47;9.88;118.99
67358;HTU21D;54240;51.096;5.878;2023-05-16T05:28:14;9.88;118.99
67358;HTU21D;54240;51.096;5.878;2023-05-16T05:30:39;9.98;118.99
67358;HTU21D;54240;51.096;5.878;2023-05-16T05:33:06;10.08;118.99
67358;HTU21D;54240;51.096;5.878;2023-05-16T05:35:32;10.16;118.99
67358;HTU21D;54240;51.096;5.878;2023-05-16T05:37:58;10.18;118.99
67358;HTU21D;54240;51.096;5.878;2023-05-16T05:40:24;10.16;118.99
67358;HTU21D;54240;51.096;5.878;2023-05-16T05:42:50;10.26;116.90
67358;HTU21D;54240;51.096;5.878;2023-05-16T05:45:17;10.19;85.11
67358;HTU21D;54240;51.096;5.878;2023-05-16T05:47:43;10.24;111.12
67358;HTU21D;54240;51.096;5.878;2023-05-16T05:50:09;10.28;118.99
67358;HTU21D;54240;51.096;5.878;2023-05-16T05:52:39;10.51;113.95
67358;HTU21D;54240;51.096;5.878;2023-05-16T05:55:09;10.62;111.36
67358;HTU21D;54240;51.096;5.878;2023-05-16T05:57:35;10.66;91.04
67358;HTU21D;54240;51.096;5.878;2023-05-16T06:00:01;10.51;64.82
67358;HTU21D;54240;51.096;5.878;2023-05-16T06:02:33;10.34;74.10
67358;HTU21D;54240;51.096;5.878;2023-05-16T06:04:59;10.52;82.45
67358;HTU21D;54240;51.096;5.878;2023-05-16T06:07:25;10.50;93.69
67358;HTU21D;54240;51.096;5.878;2023-05-16T06:09:51;10.72;75.66
67358;HTU21D;54240;51.096;5.878;2023-05-16T06:12:17;10.86;68.92
67358;HTU21D;54240;51.096;5.878;2023-05-16T06:14:43;10.94;51.37
67358;HTU21D;54240;51.096;5.878;2023-05-16T06:17:09;10.86;20.18
67358;HTU21D;54240;51.096;5.878;2023-05-16T06:19:35;11.07;50.07
67358;HTU21D;54240;51.096;5.878;2023-05-16T06:22:03;11.19;7.66
67358;HTU21D;54240;51.096;5.878;2023-05-16T06:24:29;11.17;-6.00
67358;HTU21D;54240;51.096;5.878;2023-05-16T06:26:55;10.89;-6.00
67358;HTU21D;54240;51.096;5.878;2023-05-16T06:29:21;10.79;1.29
67358;HTU21D;54240;51.096;5.878;2023-05-16T06:31:47;10.64;-6.00
67358;HTU21D;54240;51.096;5.878;2023-05-16T06:34:13;10.65;-6.00
67358;HTU21D;54240;51.096;5.878;2023-05-16T06:36:39;10.86;-6.00
67358;HTU21D;54240;51.096;5.878;2023-05-16T06:39:06;11.01;-6.00
67358;HTU21D;54240;51.096;5.878;2023-05-16T06:41:32;10.93;-6.00
67358;HTU21D;54240;51.096;5.878;2023-05-16T06:43:58;10.64;-6.00
67358;HTU21D;54240;51.096;5.878;2023-05-16T06:46:24;10.55;-6.00
67358;HTU21D;54240;51.096;5.878;2023-05-16T06:48:50;10.39;-6.00
67358;HTU21D;54240;51.096;5.878;2023-05-16T06:51:16;10.29;-0.62
67358;HTU21D;54240;51.096;5.878;2023-05-16T06:53:42;10.52;-1.82
67358;HTU21D;54240;51.096;5.878;2023-05-16T06:56:08;10.51;-6.00
67358;HTU21D;54240;51.096;5.878;2023-05-16T06:58:34;10.49;-6.00
67358;HTU21D;54240;51.096;5.878;2023-05-16T07:01:00;10.65;-6.00
67358;HTU21D;54240;51.096;5.878;2023-05-16T07:03:27;10.81;-6.00
67358;HTU21D;54240;51.096;5.878;2023-05-16T07:05:53;10.98;-6.00
67358;HTU21D;54240;51.096;5.878;2023-05-16T07:08:20;11.00;-6.00
67358;HTU21D;54240;51.096;5.878;2023-05-16T07:10:45;11.10;-6.00
67358;HTU21D;54240;51.096;5.878;2023-05-16T07:13:12;11.36;-6.00
67358;HTU21D;54240;51.096;5.878;2023-05-16T07:15:37;11.40;-6.00
67358;HTU21D;54240;51.096;5.878;2023-05-16T07:18:04;11.59;-6.00
67358;HTU21D;54240;51.096;5.878;2023-05-16T07:20:29;11.69;-6.00
67358;HTU21D;54240;51.096;5.878;2023-05-16T07:22:55;11.71;-6.00
67358;HTU21D;54240;51.096;5.878;2023-05-16T07:25:24;12.03;-6.00
67358;HTU21D;54240;51.096;5.878;2023-05-16T07:27:51;12.42;-6.00
67358;HTU21D;54240;51.096;5.878;2023-05-16T07:30:17;12.21;-6.00
67358;HTU21D;54240;51.096;5.878;2023-05-16T07:32:42;12.29;-6.00
67358;HTU21D;54240;51.096;5.878;2023-05-16T07:35:09;12.01;-6.00
67358;HTU21D;54240;51.096;5.878;2023-05-16T07:37:35;12.33;-6.00
67358;HTU21D;54240;51.096;5.878;2023-05-16T07:40:02;12.51;-6.00
67358;HTU21D;54240;51.096;5.878;2023-05-16T07:42:30;12.81;-6.00
67358;HTU21D;54240;51.096;5.878;2023-05-16T07:44:56;12.63;-6.00
67358;HTU21D;54240;51.096;5.878;2023-05-16T07:47:22;12.75;-6.00
67358;HTU21D;54240;51.096;5.878;2023-05-16T07:49:48;12.76;-6.00
67358;HTU21D;54240;51.096;5.878;2023-05-16T07:52:14;12.89;-6.00
67358;HTU21D;54240;51.096;5.878;2023-05-16T07:54:40;12.79;-6.00
67358;HTU21D;54240;51.096;5.878;2023-05-16T07:57:06;12.81;-6.00
67358;HTU21D;54240;51.096;5.878;2023-05-16T07:59:32;12.73;-6.00
67358;HTU21D;54240;51.096;5.878;2023-05-16T08:01:58;12.95;-6.00
67358;HTU21D;54240;51.096;5.878;2023-05-16T08:04:24;13.33;-6.00
67358;HTU21D;54240;51.096;5.878;2023-05-16T08:06:50;13.55;-6.00
67358;HTU21D;54240;51.096;5.878;2023-05-16T08:09:16;14.00;-6.00
67358;HTU21D;54240;51.096;5.878;2023-05-16T08:11:42;13.89;-6.00
67358;HTU21D;54240;51.096;5.878;2023-05-16T08:14:10;14.45;-6.00
67358;HTU21D;54240;51.096;5.878;2023-05-16T08:16:36;14.88;-6.00
67358;HTU21D;54240;51.096;5.878;2023-05-16T08:19:03;15.27;-6.00
67358;HTU21D;54240;51.096;5.878;2023-05-16T08:21:29;15.68;-6.00
67358;HTU21D;54240;51.096;5.878;2023-05-16T08:23:56;15.82;-6.00
67358;HTU21D;54240;51.096;5.878;2023-05-16T08:26:22;16.03;-6.00
67358;HTU21D;54240;51.096;5.878;2023-05-16T08:28:48;15.90;-6.00
67358;HTU21D;54240;51.096;5.878;2023-05-16T08:31:14;16.01;-6.00
67358;HTU21D;54240;51.096;5.878;2023-05-16T08:33:40;16.32;-6.00
67358;HTU21D;54240;51.096;5.878;2023-05-16T08:36:06;15.61;-6.00
67358;HTU21D;54240;51.096;5.878;2023-05-16T08:38:33;15.19;-6.00
67358;HTU21D;54240;51.096;5.878;2023-05-16T08:41:00;15.39;-6.00
67358;HTU21D;54240;51.096;5.878;2023-05-16T08:43:25;15.72;-6.00
67358;HTU21D;54240;51.096;5.878;2023-05-16T08:45:51;16.03;-6.00
67358;HTU21D;54240;51.096;5.878;2023-05-16T08:48:22;16.45;-6.00
67358;HTU21D;54240;51.096;5.878;2023-05-16T08:50:48;15.74;-6.00
67358;HTU21D;54240;51.096;5.878;2023-05-16T08:53:21;15.70;-6.00
67358;HTU21D;54240;51.096;5.878;2023-05-16T08:55:48;15.68;-6.00
67358;HTU21D;54240;51.096;5.878;2023-05-16T08:58:16;14.98;-6.00
67358;HTU21D;54240;51.096;5.878;2023-05-16T09:00:42;14.87;-6.00
67358;HTU21D;54240;51.096;5.878;2023-05-16T09:03:09;14.43;-6.00
67358;HTU21D;54240;51.096;5.878;2023-05-16T09:05:36;14.37;-6.00
67358;HTU21D;54240;51.096;5.878;2023-05-16T09:08:02;13.92;-6.00
67358;HTU21D;54240;51.096;5.878;2023-05-16T09:10:28;13.85;-6.00
67358;HTU21D;54240;51.096;5.878;2023-05-16T09:12:54;14.57;-6.00
67358;HTU21D;54240;51.096;5.878;2023-05-16T09:15:20;14.32;-6.00
67358;HTU21D;54240;51.096;5.878;2023-05-16T09:17:46;14.45;-6.00
67358;HTU21D;54240;51.096;5.878;2023-05-16T09:20:18;14.38;-6.00
67358;HTU21D;54240;51.096;5.878;2023-05-16T09:22:58;14.70;-6.00
67358;HTU21D;54240;51.096;5.878;2023-05-16T09:25:30;14.81;-6.00
67358;HTU21D;54240;51.096;5.878;2023-05-16T09:27:57;15.58;-6.00
67358;HTU21D;54240;51.096;5.878;2023-05-16T09:30:31;16.61;-6.00
67358;HTU21D;54240;51.096;5.878;2023-05-16T09:32:58;16.81;-6.00
67358;HTU21D;54240;51.096;5.878;2023-05-16T09:35:25;16.40;-6.00
67358;HTU21D;54240;51.096;5.878;2023-05-16T09:37:51;16.02;-6.00
67358;HTU21D;54240;51.096;5.878;2023-05-16T09:40:22;15.54;-6.00
67358;HTU21D;54240;51.096;5.878;2023-05-16T09:43:03;15.26;-6.00
67358;HTU21D;54240;51.096;5.878;2023-05-16T09:45:31;15.34;-6.00
67358;HTU21D;54240;51.096;5.878;2023-05-16T09:48:04;15.01;-6.00
67358;HTU21D;54240;51.096;5.878;2023-05-16T09:50:32;14.87;-6.00
67358;HTU21D;54240;51.096;5.878;2023-05-16T09:52:59;15.01;-6.00
67358;HTU21D;54240;51.096;5.878;2023-05-16T09:55:25;15.32;-6.00
67358;HTU21D;54240;51.096;5.878;2023-05-16T09:57:51;15.60;-6.00
67358;HTU21D;54240;51.096;5.878;2023-05-16T10:00:17;15.92;-6.00
67358;HTU21D;54240;51.096;5.878;2023-05-16T10:02:43;15.77;-6.00
67358;HTU21D;54240;51.096;5.878;2023-05-16T10:05:10;15.70;-6.00
67358;HTU21D;54240;51.096;5.878;2023-05-16T10:07:36;15.78;-6.00
67358;HTU21D;54240;51.096;5.878;2023-05-16T10:10:06;15.61;-6.00
67358;HTU21D;54240;51.096;5.878;2023-05-16T10:12:35;15.34;-6.00
67358;HTU21D;54240;51.096;5.878;2023-05-16T10:15:04;15.63;-6.00
67358;HTU21D;54240;51.096;5.878;2023-05-16T10:17:35;16.27;-6.00
67358;HTU21D;54240;51.096;5.878;2023-05-16T10:20:05;17.20;-6.00
67358;HTU21D;54240;51.096;5.878;2023-05-16T10:22:35;17.56;-6.00
67358;HTU21D;54240;51.096;5.878;2023-05-16T10:25:22;17.40;-6.00
67358;HTU21D;54240;51.096;5.878;2023-05-16T10:27:50;17.61;-6.00
67358;HTU21D;54240;51.096;5.878;2023-05-16T10:30:18;17.41;-6.00
67358;HTU21D;54240;51.096;5.878;2023-05-16T10:32:45;16.33;-6.00
67358;HTU21D;54240;51.096;5.878;2023-05-16T10:35:12;16.30;-6.00
67358;HTU21D;54240;51.096;5.878;2023-05-16T10:37:39;16.21;-6.00
67358;HTU21D;54240;51.096;5.878;2023-05-16T10:40:08;15.97;-6.00
67358;HTU21D;54240;51.096;5.878;2023-05-16T10:42:35;15.55;-6.00
67358;HTU21D;54240;51.096;5.878;2023-05-16T10:45:17;15.46;-6.00
67358;HTU21D;54240;51.096;5.878;2023-05-16T10:48:11;16.33;-6.00
67358;HTU21D;54240;51.096;5.878;2023-05-16T10:50:44;17.26;-6.00
67358;HTU21D;54240;51.096;5.878;2023-05-16T10:55:44;18.69;-6.00
67358;HTU21D;54240;51.096;5.878;2023-05-16T10:58:10;18.36;-6.00
67358;HTU21D;54240;51.096;5.878;2023-05-16T11:00:38;17.29;-6.00
67358;HTU21D;54240;51.096;5.878;2023-05-16T11:03:21;16.78;-6.00
67358;HTU21D;54240;51.096;5.878;2023-05-16T11:05:51;18.23;-6.00
67358;HTU21D;54240;51.096;5.878;2023-05-16T11:08:18;19.67;-6.00
67358;HTU21D;54240;51.096;5.878;2023-05-16T11:10:44;19.22;-6.00
67358;HTU21D;54240;51.096;5.878;2023-05-16T11:13:10;18.47;-6.00
67358;HTU21D;54240;51.096;5.878;2023-05-16T11:15:36;17.55;-6.00
67358;HTU21D;54240;51.096;5.878;2023-05-16T11:18:07;16.48;-6.00
67358;HTU21D;54240;51.096;5.878;2023-05-16T11:20:39;16.11;-6.00
67358;HTU21D;54240;51.096;5.878;2023-05-16T11:25:45;15.72;-6.00
67358;HTU21D;54240;51.096;5.878;2023-05-16T11:28:12;15.59;-6.00
67358;HTU21D;54240;51.096;5.878;2023-05-16T11:30:51;15.61;-6.00
67358;HTU21D;54240;51.096;5.878;2023-05-16T11:33:17;15.73;-6.00
67358;HTU21D;54240;51.096;5.878;2023-05-16T11:36:05;15.58;-6.00
67358;HTU21D;54240;51.096;5.878;2023-05-16T11:38:32;15.18;-6.00
67358;HTU21D;54240;51.096;5.878;2023-05-16T11:41:04;15.29;-6.00
67358;HTU21D;54240;51.096;5.878;2023-05-16T11:43:42;15.30;-6.00
67358;HTU21D;54240;51.096;5.878;2023-05-16T11:46:14;15.63;-6.00
67358;HTU21D;54240;51.096;5.878;2023-05-16T11:48:41;16.27;-6.00
67358;HTU21D;54240;51.096;5.878;2023-05-16T11:51:09;16.36;-6.00
67358;HTU21D;54240;51.096;5.878;2023-05-16T11:53:36;16.27;-6.00
67358;HTU21D;54240;51.096;5.878;2023-05-16T11:56:03;16.55;-6.00
67358;HTU21D;54240;51.096;5.878;2023-05-16T11:58:29;16.39;-6.00
67358;HTU21D;54240;51.096;5.878;2023-05-16T12:00:56;16.43;-6.00
67358;HTU21D;54240;51.096;5.878;2023-05-16T12:03:22;16.71;-6.00
67358;HTU21D;54240;51.096;5.878;2023-05-16T12:05:50;17.00;-6.00
67358;HTU21D;54240;51.096;5.878;2023-05-16T12:08:18;17.36;-6.00
67358;HTU21D;54240;51.096;5.878;2023-05-16T12:10:48;17.65;-6.00
67358;HTU21D;54240;51.096;5.878;2023-05-16T12:13:16;17.19;-6.00
67358;HTU21D;54240;51.096;5.878;2023-05-16T12:15:43;17.40;-6.00
67358;HTU21D;54240;51.096;5.878;2023-05-16T12:18:10;17.39;-6.00
67358;HTU21D;54240;51.096;5.878;2023-05-16T12:20:37;17.14;-6.00
67358;HTU21D;54240;51.096;5.878;2023-05-16T12:23:03;17.07;-6.00
67358;HTU21D;54240;51.096;5.878;2023-05-16T12:25:30;16.59;-6.00
67358;HTU21D;54240;51.096;5.878;2023-05-16T12:27:59;17.32;-6.00
67358;HTU21D;54240;51.096;5.878;2023-05-16T12:30:27;17.62;-6.00
67358;HTU21D;54240;51.096;5.878;2023-05-16T12:32:59;17.81;-6.00
67358;HTU21D;54240;51.096;5.878;2023-05-16T12:35:30;17.53;-6.00
67358;HTU21D;54240;51.096;5.878;2023-05-16T12:37:56;18.21;-6.00
67358;HTU21D;54240;51.096;5.878;2023-05-16T12:40:22;18.72;-6.00
67358;HTU21D;54240;51.096;5.878;2023-05-16T12:42:49;18.69;-6.00
67358;HTU21D;54240;51.096;5.878;2023-05-16T12:45:16;18.25;-6.00
67358;HTU21D;54240;51.096;5.878;2023-05-16T12:47:44;17.78;-6.00
67358;HTU21D;54240;51.096;5.878;2023-05-16T12:50:11;17.13;-6.00
67358;HTU21D;54240;51.096;5.878;2023-05-16T12:53:09;17.00;-6.00
67358;HTU21D;54240;51.096;5.878;2023-05-16T12:55:35;16.74;-6.00
67358;HTU21D;54240;51.096;5.878;2023-05-16T12:58:01;16.78;-6.00
67358;HTU21D;54240;51.096;5.878;2023-05-16T13:00:27;16.70;-6.00
67358;HTU21D;54240;51.096;5.878;2023-05-16T13:02:54;16.85;-6.00
67358;HTU21D;54240;51.096;5.878;2023-05-16T13:05:20;16.90;-6.00
67358;HTU21D;54240;51.096;5.878;2023-05-16T13:07:48;17.15;-6.00
67358;HTU21D;54240;51.096;5.878;2023-05-16T13:10:17;17.69;-6.00
67358;HTU21D;54240;51.096;5.878;2023-05-16T13:12:43;17.93;-6.00
67358;HTU21D;54240;51.096;5.878;2023-05-16T13:15:10;17.98;-6.00
67358;HTU21D;54240;51.096;5.878;2023-05-16T13:17:38;17.69;-6.00
67358;HTU21D;54240;51.096;5.878;2023-05-16T13:20:05;17.93;-6.00
67358;HTU21D;54240;51.096;5.878;2023-05-16T13:22:35;17.92;-6.00
67358;HTU21D;54240;51.096;5.878;2023-05-16T13:25:02;17.67;-6.00
67358;HTU21D;54240;51.096;5.878;2023-05-16T13:27:29;17.54;-6.00
67358;HTU21D;54240;51.096;5.878;2023-05-16T13:29:55;17.68;-6.00
67358;HTU21D;54240;51.096;5.878;2023-05-16T13:32:21;17.02;-6.00
67358;HTU21D;54240;51.096;5.878;2023-05-16T13:34:47;16.90;-6.00
67358;HTU21D;54240;51.096;5.878;2023-05-16T13:37:13;17.05;-6.00
67358;HTU21D;54240;51.096;5.878;2023-05-16T13:39:39;16.62;-6.00
67358;HTU21D;54240;51.096;5.878;2023-05-16T13:42:06;16.80;-6.00
67358;HTU21D;54240;51.096;5.878;2023-05-16T13:44:31;16.72;-6.00
67358;HTU21D;54240;51.096;5.878;2023-05-16T13:46:58;16.76;-6.00
67358;HTU21D;54240;51.096;5.878;2023-05-16T13:49:24;16.59;-6.00
67358;HTU21D;54240;51.096;5.878;2023-05-16T13:51:50;16.48;-6.00
67358;HTU21D;54240;51.096;5.878;2023-05-16T13:54:17;16.60;-6.00
67358;HTU21D;54240;51.096;5.878;2023-05-16T13:56:44;16.74;-6.00
67358;HTU21D;54240;51.096;5.878;2023-05-16T13:59:10;16.39;-6.00
67358;HTU21D;54240;51.096;5.878;2023-05-16T14:01:36;16.35;-6.00
67358;HTU21D;54240;51.096;5.878;2023-05-16T14:04:02;16.62;-6.00
67358;HTU21D;54240;51.096;5.878;2023-05-16T14:06:28;16.65;-6.00
67358;HTU21D;54240;51.096;5.878;2023-05-16T14:08:55;16.81;-6.00
67358;HTU21D;54240;51.096;5.878;2023-05-16T14:11:21;16.86;-6.00
67358;HTU21D;54240;51.096;5.878;2023-05-16T14:13:53;16.95;-6.00
67358;HTU21D;54240;51.096;5.878;2023-05-16T14:16:20;16.94;-6.00
67358;HTU21D;54240;51.096;5.878;2023-05-16T14:18:46;16.63;-6.00
67358;HTU21D;54240;51.096;5.878;2023-05-16T14:21:13;16.71;-6.00
67358;HTU21D;54240;51.096;5.878;2023-05-16T14:23:39;16.77;-6.00
67358;HTU21D;54240;51.096;5.878;2023-05-16T14:26:05;16.70;-6.00
67358;HTU21D;54240;51.096;5.878;2023-05-16T14:28:31;16.60;-6.00
67358;HTU21D;54240;51.096;5.878;2023-05-16T14:30:58;16.55;-6.00
67358;HTU21D;54240;51.096;5.878;2023-05-16T14:33:24;16.33;-6.00
67358;HTU21D;54240;51.096;5.878;2023-05-16T14:35:51;16.11;-6.00
67358;HTU21D;54240;51.096;5.878;2023-05-16T14:38:18;16.12;-6.00
67358;HTU21D;54240;51.096;5.878;2023-05-16T14:40:44;15.80;-6.00
67358;HTU21D;54240;51.096;5.878;2023-05-16T14:43:10;15.85;-6.00
67358;HTU21D;54240;51.096;5.878;2023-05-16T14:45:36;15.61;-6.00
67358;HTU21D;54240;51.096;5.878;2023-05-16T14:48:05;15.78;-6.00
67358;HTU21D;54240;51.096;5.878;2023-05-16T14:50:31;15.71;-6.00
67358;HTU21D;54240;51.096;5.878;2023-05-16T14:52:57;15.70;-6.00
67358;HTU21D;54240;51.096;5.878;2023-05-16T14:55:23;15.48;-6.00
67358;HTU21D;54240;51.096;5.878;2023-05-16T14:57:49;15.96;-6.00
67358;HTU21D;54240;51.096;5.878;2023-05-16T15:00:16;15.76;-6.00
67358;HTU21D;54240;51.096;5.878;2023-05-16T15:02:42;15.95;-6.00
67358;HTU21D;54240;51.096;5.878;2023-05-16T15:05:09;16.06;-6.00
67358;HTU21D;54240;51.096;5.878;2023-05-16T15:07:35;16.45;-6.00
67358;HTU21D;54240;51.096;5.878;2023-05-16T15:10:01;16.80;-6.00
67358;HTU21D;54240;51.096;5.878;2023-05-16T15:12:30;16.73;-6.00
67358;HTU21D;54240;51.096;5.878;2023-05-16T15:14:57;16.55;-6.00
67358;HTU21D;54240;51.096;5.878;2023-05-16T15:17:22;16.57;-6.00
67358;HTU21D;54240;51.096;5.878;2023-05-16T15:19:49;16.69;-6.00
67358;HTU21D;54240;51.096;5.878;2023-05-16T15:22:17;16.94;-6.00
67358;HTU21D;54240;51.096;5.878;2023-05-16T15:24:43;16.72;-6.00
67358;HTU21D;54240;51.096;5.878;2023-05-16T15:27:09;16.54;-6.00
67358;HTU21D;54240;51.096;5.878;2023-05-16T15:29:36;16.22;-6.00
67358;HTU21D;54240;51.096;5.878;2023-05-16T15:32:03;16.14;-6.00
67358;HTU21D;54240;51.096;5.878;2023-05-16T15:34:34;16.05;-6.00
67358;HTU21D;54240;51.096;5.878;2023-05-16T15:37:00;15.98;-6.00